createdAt,value
2022-12-15T00:04:15.191Z,24.51
2022-12-15T00:09:37.797Z,25.03
2022-12-15T00:15:00.487Z,24.31
2022-12-15T00:20:24.249Z,24.23
2022-12-15T00:25:46.975Z,24.39
2022-12-15T00:31:09.782Z,24.12
2022-12-15T00:36:32.789Z,24.39
2022-12-15T00:41:37.556Z,24.16
2022-12-15T00:46:57.449Z,23.90
2022-12-15T00:52:21.664Z,23.68
2022-12-15T00:57:44.971Z,23.26
2022-12-15T01:03:08.457Z,23.99
2022-12-15T01:08:31.755Z,23.71
2022-12-15T01:13:54.901Z,22.72
2022-12-15T01:19:18.622Z,23.49
2022-12-15T01:24:23.797Z,21.94
2022-12-15T01:29:28.803Z,21.79
2022-12-15T01:34:33.770Z,22.15
2022-12-15T01:39:57.237Z,22.18
2022-12-15T01:45:26.331Z,21.53
2022-12-15T01:50:32.951Z,21.80
2022-12-15T01:55:41.454Z,21.05
2022-12-15T02:00:47.559Z,21.03
2022-12-15T02:05:54.203Z,20.66
2022-12-15T02:11:21.978Z,20.56
2022-12-15T02:16:55.170Z,20.84
2022-12-15T02:22:28.363Z,20.26
2022-12-15T02:27:52.435Z,21.11
2022-12-15T02:33:06.936Z,21.11
2022-12-15T02:38:11.720Z,21.21
2022-12-15T02:43:16.456Z,20.50
2022-12-15T02:48:24.417Z,21.20
2022-12-15T02:54:30.351Z,20.63
2022-12-15T02:59:59.436Z,21.35
2022-12-15T03:05:05.117Z,21.04
2022-12-15T03:10:12.942Z,20.16
2022-12-15T03:15:18.916Z,20.04
2022-12-15T03:20:23.687Z,20.63
2022-12-15T03:25:28.265Z,21.29
2022-12-15T03:30:33.144Z,20.73
2022-12-15T03:35:38.860Z,19.81
2022-12-15T03:40:42.942Z,19.39
2022-12-15T03:45:48.294Z,19.89
2022-12-15T03:50:53.091Z,20.14
2022-12-15T03:55:57.744Z,20.07
2022-12-15T04:01:15.492Z,20.50
2022-12-15T04:06:20.671Z,20.55
2022-12-15T04:11:26.178Z,21.54
2022-12-15T04:16:31.128Z,20.80
2022-12-15T04:21:35.763Z,20.12
2022-12-15T04:26:58.293Z,21.76
2022-12-15T04:32:20.824Z,19.57
2022-12-15T04:37:43.561Z,19.82
2022-12-15T04:43:10.571Z,18.24
2022-12-15T04:48:33.928Z,19.09
2022-12-15T04:53:57.014Z,18.68
2022-12-15T04:59:20.456Z,18.24
2022-12-15T05:04:43.284Z,20.87
2022-12-15T05:10:09.540Z,20.21
2022-12-15T05:15:36.907Z,17.95
2022-12-15T05:21:00.268Z,18.03
2022-12-15T05:26:23.634Z,18.88
2022-12-15T05:31:46.484Z,17.85
2022-12-15T05:36:52.541Z,19.43
2022-12-15T05:41:58.776Z,20.95
2022-12-15T05:47:03.739Z,18.28
2022-12-15T05:52:08.686Z,20.08
2022-12-15T05:57:13.478Z,19.50
2022-12-15T06:02:19.047Z,18.29
2022-12-15T06:07:26.618Z,21.78
2022-12-15T06:12:31.521Z,21.78
2022-12-15T06:17:36.940Z,21.78
2022-12-15T06:22:45.297Z,22.08
2022-12-15T06:28:00.039Z,20.87
2022-12-15T06:33:06.728Z,22.11
2022-12-15T06:38:11.477Z,21.23
2022-12-15T06:43:16.255Z,21.82
2022-12-15T06:48:21.957Z,20.90
2022-12-15T06:53:27.019Z,21.30
2022-12-15T06:58:32.008Z,22.28
2022-12-15T07:03:39.546Z,21.72
2022-12-15T07:08:46.572Z,21.09
2022-12-15T07:13:55.349Z,21.69
2022-12-15T07:19:00.020Z,21.35
2022-12-15T07:24:07.763Z,20.93
2022-12-15T07:29:16.910Z,21.19
2022-12-15T07:34:25.460Z,21.24
2022-12-15T07:39:30.262Z,22.25
2022-12-15T07:44:35.126Z,21.32
2022-12-15T07:49:40.558Z,21.10
2022-12-15T07:54:45.208Z,21.38
2022-12-15T07:59:49.995Z,21.54
2022-12-15T08:04:54.912Z,21.82
2022-12-15T08:09:59.727Z,22.25
2022-12-15T08:15:04.997Z,22.43
2022-12-15T08:20:10.847Z,22.12
2022-12-15T08:25:15.649Z,21.30
2022-12-15T08:30:20.704Z,22.05
2022-12-15T08:35:55.133Z,21.69
2022-12-15T08:40:51.975Z,22.69
2022-12-15T08:45:57.941Z,22.28
2022-12-15T08:51:03.179Z,22.83
2022-12-15T08:56:11.601Z,22.41
2022-12-15T09:01:23.985Z,23.00
2022-12-15T09:06:34.947Z,23.48
2022-12-15T09:11:40.581Z,23.37
2022-12-15T09:16:45.954Z,23.24
2022-12-15T09:21:55.583Z,23.44
2022-12-15T09:27:00.321Z,22.77
2022-12-15T09:32:10.539Z,22.44
2022-12-15T09:37:19.827Z,23.32
2022-12-15T09:42:30.887Z,23.63
2022-12-15T09:47:55.534Z,23.87
2022-12-15T09:53:01.485Z,22.98
2022-12-15T09:58:41.899Z,23.20
2022-12-15T10:03:52.440Z,23.31
2022-12-15T10:09:02.131Z,23.58
2022-12-15T10:14:24.031Z,23.21
2022-12-15T10:20:05.213Z,24.18
2022-12-15T10:25:34.735Z,24.70
2022-12-15T10:30:51.061Z,24.54
2022-12-15T10:35:56.965Z,24.43
2022-12-15T10:41:05.269Z,24.81
2022-12-15T10:46:39.018Z,23.89
2022-12-15T10:52:01.488Z,24.20
2022-12-15T10:57:30.120Z,24.26
2022-12-15T11:02:37.934Z,25.13
2022-12-15T11:07:48.140Z,24.95
2022-12-15T11:13:18.491Z,25.02
2022-12-15T11:19:04.201Z,24.87
2022-12-15T11:24:18.246Z,25.62
2022-12-15T11:29:30.604Z,25.16
2022-12-15T11:34:44.349Z,24.96
2022-12-15T11:40:05.721Z,25.32
2022-12-15T11:45:16.194Z,25.77
2022-12-15T11:50:31.955Z,25.54
2022-12-15T11:55:58.226Z,24.95
2022-12-15T12:01:23.322Z,25.53
2022-12-15T12:06:48.582Z,25.47
2022-12-15T12:12:03.207Z,25.81
2022-12-15T12:17:28.501Z,25.91
2022-12-15T12:22:59.291Z,25.95
2022-12-15T12:28:15.301Z,25.97
2022-12-15T12:33:44.937Z,26.66
2022-12-15T12:38:54.356Z,26.55
2022-12-15T12:44:20.388Z,26.42
2022-12-15T12:49:35.142Z,24.62
2022-12-15T12:54:40.330Z,25.58
2022-12-15T13:00:02.657Z,25.47
2022-12-15T13:05:30.693Z,25.44
2022-12-15T13:10:37.590Z,25.67
2022-12-15T13:15:49.144Z,25.10
2022-12-15T13:20:59.615Z,24.04
2022-12-15T13:26:04.747Z,24.22
2022-12-15T13:31:24.691Z,24.14
2022-12-15T13:36:54.799Z,25.19
2022-12-15T13:47:32.393Z,25.04
2022-12-15T13:58:25.814Z,25.35
2022-12-15T14:03:31.320Z,25.38
2022-12-15T14:08:36.583Z,25.60
2022-12-15T14:13:41.704Z,25.97
2022-12-15T14:19:03.928Z,25.70
2022-12-15T14:24:40.851Z,26.07
2022-12-15T14:29:46.198Z,26.39
2022-12-15T14:34:55.754Z,26.06
2022-12-15T14:40:00.862Z,25.15
2022-12-15T14:45:09.810Z,26.00
2022-12-15T14:55:44.339Z,26.22
2022-12-15T15:00:55.409Z,26.38
2022-12-15T15:03:14.539Z,26.33
2022-12-15T15:06:18.077Z,25.59
2022-12-15T15:11:36.327Z,26.55
2022-12-15T15:16:41.771Z,26.36
2022-12-15T15:21:49.092Z,25.19
2022-12-15T15:26:55.201Z,25.76
2022-12-15T15:32:22.378Z,25.89
2022-12-15T15:37:27.632Z,25.45
2022-12-15T15:42:32.868Z,26.15
2022-12-15T15:47:38.145Z,25.49
2022-12-15T15:52:43.477Z,25.17
2022-12-15T15:57:48.304Z,25.18
2022-12-15T16:02:53.710Z,25.15
2022-12-15T16:07:59.146Z,23.96
2022-12-15T16:13:04.133Z,24.84
2022-12-15T16:18:09.529Z,24.73
2022-12-15T16:23:22.872Z,25.35
2022-12-15T16:28:31.918Z,25.12
2022-12-15T16:33:37.477Z,24.85
2022-12-15T16:38:42.604Z,24.98
2022-12-15T16:43:48.287Z,24.70
2022-12-15T16:48:53.151Z,24.80
2022-12-15T16:53:59.743Z,25.40
2022-12-15T16:59:32.062Z,25.64
2022-12-15T17:04:28.924Z,25.40
2022-12-15T17:09:39.236Z,25.23
2022-12-15T17:14:46.248Z,25.22
2022-12-15T17:20:27.915Z,24.83
2022-12-15T17:25:37.546Z,26.03
2022-12-15T17:30:48.293Z,25.87
2022-12-15T17:35:58.907Z,25.84
2022-12-15T17:41:03.565Z,25.76
2022-12-15T17:46:08.547Z,25.26
2022-12-15T17:51:17.276Z,26.00
2022-12-15T17:56:28.151Z,26.01
2022-12-15T18:01:32.808Z,26.46
2022-12-15T18:06:39.065Z,25.53
2022-12-15T18:11:46.378Z,25.89
2022-12-15T18:16:51.840Z,26.21
2022-12-15T18:21:56.863Z,25.67
2022-12-15T18:27:01.542Z,25.61
2022-12-15T18:32:06.864Z,25.65
2022-12-15T18:37:23.956Z,26.15
2022-12-15T18:42:29.075Z,25.82
2022-12-15T18:47:33.653Z,25.31
2022-12-15T18:52:38.316Z,25.96
2022-12-15T18:57:43.109Z,25.73
2022-12-15T19:02:48.727Z,25.57
2022-12-15T19:07:53.583Z,25.48
2022-12-15T19:12:58.851Z,26.76
2022-12-15T19:18:21.498Z,26.56
2022-12-15T19:23:26.605Z,25.84
2022-12-15T19:28:31.114Z,27.39
2022-12-15T19:33:35.896Z,26.62
2022-12-15T19:38:40.605Z,26.85
2022-12-15T19:43:45.445Z,25.71
2022-12-15T19:48:50.434Z,26.02
2022-12-15T19:53:55.026Z,26.85
2022-12-15T19:58:59.650Z,26.45
2022-12-15T20:04:04.200Z,26.25
2022-12-15T20:09:12.283Z,26.88
2022-12-15T20:14:19.229Z,26.81
2022-12-15T20:19:23.753Z,27.13
2022-12-15T20:24:28.678Z,27.40
2022-12-15T20:29:34.230Z,27.70
2022-12-15T20:34:39.256Z,26.96
2022-12-15T20:39:44.529Z,27.02
2022-12-15T20:44:50.399Z,27.76
2022-12-15T20:49:57.211Z,27.26
2022-12-15T20:55:04.305Z,28.11
2022-12-15T21:00:10.240Z,27.30
2022-12-15T21:05:23.985Z,26.67
2022-12-15T21:10:29.117Z,27.09
2022-12-15T21:15:33.660Z,27.36
2022-12-15T21:20:38.231Z,27.29
2022-12-15T21:25:42.793Z,27.41
2022-12-15T21:30:47.628Z,26.71
2022-12-15T21:35:52.245Z,26.43
2022-12-15T21:41:05.693Z,26.95
2022-12-15T21:46:27.721Z,26.03
2022-12-15T21:51:36.816Z,26.43
2022-12-15T21:56:41.510Z,26.54
2022-12-15T22:01:46.278Z,27.44
2022-12-15T22:06:51.292Z,26.24
2022-12-15T22:11:58.353Z,25.47
2022-12-15T22:17:13.282Z,25.96
2022-12-15T22:22:18.367Z,25.87
2022-12-15T22:27:24.454Z,24.82
2022-12-15T22:32:29.000Z,25.36
2022-12-15T22:37:33.510Z,25.26
2022-12-15T22:42:39.336Z,24.57
2022-12-15T22:47:45.077Z,24.72
2022-12-15T22:52:50.228Z,24.35
2022-12-15T22:58:02.947Z,25.16
2022-12-15T23:03:10.588Z,24.79
2022-12-15T23:08:15.203Z,24.21
2022-12-15T23:13:19.959Z,24.86
2022-12-15T23:18:24.533Z,24.53
2022-12-15T23:23:31.297Z,25.11
2022-12-15T23:28:36.942Z,24.90
2022-12-15T23:33:42.827Z,24.92
2022-12-15T23:38:47.617Z,25.01
2022-12-15T23:43:52.180Z,24.81
2022-12-15T23:48:57.716Z,24.20
2022-12-15T23:54:02.326Z,24.99
2022-12-15T23:59:06.862Z,24.09
